Date,TemperatureHighF,TemperatureAvgF,TemperatureLowF,DewpointHighF,DewpointAvgF,DewpointLowF,HumidityHigh,HumidityAvg,HumidityLow,PressureMaxIn,PressureMinIn,WindSpeedMaxMPH,WindSpeedAvgMPH,GustSpeedMaxMPH,PrecipitationSumIn
2013-8-1,87.6,73.5,65.1,73.6,67.0,62.8,99,82,52,30.09,29.94,14,2,14,0.01
2013-8-2,86.7,74.4,61.9,68.0,63.5,60.3,98,71,45,30.11,30.01,9,2,9,0.00
2013-8-3,87.6,72.8,61.9,69.8,65.3,60.4,97,79,52,30.09,30.00,8,2,8,0.00
2013-8-4,84.2,74.4,63.9,67.1,61.8,55.0,94,68,38,30.16,30.01,17,4,17,0.00
2013-8-5,81.9,70.9,59.9,65.7,61.0,55.9,90,72,50,30.19,30.08,15,3,15,0.00
2013-8-6,85.3,73.8,66.0,72.1,68.3,64.2,98,84,63,30.11,30.05,11,2,11,0.19
2013-8-7,81.3,73.1,69.1,74.5,71.0,68.7,99,93,78,30.15,30.09,10,1,10,0.02
2013-8-8,85.5,74.8,70.2,76.3,72.1,69.6,99,92,72,30.13,30.06,11,2,11,0.26
2013-8-9,90.0,78.5,68.5,78.1,73.2,68.2,99,85,61,30.10,30.03,13,2,13,0.04
2013-8-10,91.4,80.6,71.1,75.0,72.1,69.3,95,77,52,30.17,30.08,11,2,11,0.00
2013-8-11,90.7,76.9,69.8,75.4,71.7,68.4,98,86,55,30.19,30.09,11,2,11,0.54
2013-8-12,90.7,77.7,68.0,74.5,70.2,66.0,99,80,47,30.14,30.03,12,2,12,0.02
2013-8-13,82.6,74.0,69.3,74.7,69.8,64.2,99,87,73,30.16,29.88,22,3,22,0.46
2013-8-14,79.2,70.1,60.1,64.6,56.2,49.5,85,63,41,30.20,29.95,19,4,19,0.00
2013-8-15,78.4,65.4,53.4,59.0,53.6,49.3,92,68,44,30.25,30.15,11,3,11,0.00
2013-8-16,76.6,64.1,50.9,61.3,56.5,50.5,99,79,53,30.26,29.86,8,2,8,0.00
2013-8-17,72.5,62.9,54.9,62.6,58.9,54.0,99,88,58,30.31,30.24,15,2,15,0.15
2013-8-18,70.0,65.3,61.3,67.5,64.1,60.8,99,96,88,30.30,30.22,8,2,8,0.73
2013-8-19,79.0,69.2,63.3,71.8,66.9,62.4,99,93,76,30.27,30.15,7,2,7,0.07
2013-8-20,86.5,75.0,65.1,73.2,69.4,64.8,99,84,61,30.27,30.18,110,4,110,0.00
2013-8-21,85.3,74.2,66.2,77.5,70.8,65.8,99,90,67,30.29,30.17,7,1,7,0.13
2013-8-22,88.2,78.6,68.0,73.8,69.7,66.4,98,75,55,30.21,30.07,11,3,11,0.15
2013-8-23,88.3,72.8,62.2,72.9,67.9,61.2,98,86,55,30.26,30.03,21,3,21,0.15
2013-8-24,82.8,68.8,58.5,65.8,61.3,57.9,99,80,46,30.39,30.21,11,3,11,0.01
2013-8-25,81.1,68.3,57.4,67.1,60.1,55.8,99,78,44,30.47,30.34,10,2,10,0.00
2013-8-26,87.1,70.2,55.2,66.4,61.6,54.3,99,78,43,30.40,30.16,10,2,10,0.00
2013-8-27,88.5,76.3,63.7,72.7,68.0,62.2,99,78,54,30.17,30.03,11,3,11,0.00
2013-8-28,82.8,75.5,71.1,76.6,71.6,67.6,98,88,71,30.08,29.93,12,2,12,0.15
2013-8-29,88.2,77.4,70.0,77.0,71.5,68.5,98,83,57,30.12,29.93,14,3,14,0.09
2013-8-30,88.2,74.9,66.0,73.6,69.8,65.7,99,86,58,30.14,29.99,10,2,10,0.00
2013-8-31,91.9,74.9,66.9,75.0,69.7,64.4,99,86,52,30.03,29.93,25,2,25,0.26